Time;durP1;ratioP1;P1;durP2;ratioP2;P2;SDS_P1;SDS_P2;PMS_P1;PMS_P2;Temp;Humidity;BMP_temperature;BMP_pressure;BME280_temperature;BME280_humidity;BME280_pressure;Samples;Min_cycle;Max_cycle;Signal;HPM_P1;HPM_P2
2021/07/17 00:01:54;;;;;;;11.57;10.48;;;;;;;29.91;55.92;99496.02;1792310;78;21143;-70
2021/07/17 00:04:21;;;;;;;12.65;10.32;;;;;;;29.91;55.85;99492.71;1813101;78;21018;-71
2021/07/17 00:06:49;;;;;;;11.63;10.53;;;;;;;29.92;55.90;99497.63;1787464;78;21102;-71
2021/07/17 00:09:17;;;;;;;11.60;9.70;;;;;;;29.91;55.92;99494.08;1824004;78;21037;-73
2021/07/17 00:11:44;;;;;;;13.10;11.28;;;;;;;29.90;55.93;99492.47;1825578;78;21083;-69
2021/07/17 00:14:11;;;;;;;12.45;9.90;;;;;;;29.91;55.97;99495.45;1761180;78;21208;-68
2021/07/17 00:16:38;;;;;;;11.50;10.30;;;;;;;29.91;55.99;99490.54;1815942;78;21060;-68
2021/07/17 00:19:04;;;;;;;11.93;10.63;;;;;;;29.91;55.95;99488.61;1777856;78;21072;-71
2021/07/17 00:21:31;;;;;;;11.65;10.53;;;;;;;29.91;56.03;99490.54;1818268;78;21021;-72
2021/07/17 00:23:58;;;;;;;10.63;9.58;;;;;;;29.90;55.98;99482.89;1790497;78;21461;-68
2021/07/17 00:26:25;;;;;;;10.75;9.65;;;;;;;29.91;55.98;99487.80;1800908;78;21778;-72
2021/07/17 00:28:52;;;;;;;10.82;9.78;;;;;;;29.90;56.01;99484.26;1806921;78;21025;-73
2021/07/17 00:31:19;;;;;;;11.33;10.32;;;;;;;29.89;55.99;99488.09;1820444;78;21576;-73
2021/07/17 00:33:46;;;;;;;11.05;10.05;;;;;;;29.90;56.03;99488.37;1794979;79;21100;-73
2021/07/17 00:36:13;;;;;;;11.12;10.13;;;;;;;29.90;55.92;99488.37;1811377;78;21550;-72
2021/07/17 00:38:39;;;;;;;10.98;9.88;;;;;;;29.90;55.93;99478.78;1801117;78;21125;-72
2021/07/17 00:41:06;;;;;;;11.22;10.13;;;;;;;29.91;55.93;99485.06;1818684;78;21492;-73
2021/07/17 00:43:33;;;;;;;10.90;9.90;;;;;;;29.89;56.01;99473.04;1808194;78;21010;-72
2021/07/17 00:46:00;;;;;;;10.32;9.25;;;;;;;29.90;55.98;99473.84;1788869;79;21087;-73
2021/07/17 00:48:26;;;;;;;10.18;9.18;;;;;;;29.91;56.03;99478.22;1797303;79;21028;-73
2021/07/17 00:50:52;;;;;;;10.40;9.40;;;;;;;29.90;56.05;99478.78;1780240;78;22520;-72
2021/07/17 00:53:19;;;;;;;11.43;10.15;;;;;;;29.91;55.98;99476.84;1788823;79;22130;-71
2021/07/17 00:55:49;;;;;;;10.43;9.50;;;;;;;29.90;55.99;99478.78;1793886;79;21591;-72
2021/07/17 00:58:17;;;;;;;10.50;9.45;;;;;;;29.90;56.05;99481.52;1798516;79;21051;-72
2021/07/17 01:00:45;;;;;;;10.72;9.68;;;;;;;29.90;55.99;99479.31;1787795;79;20994;-72
2021/07/17 01:03:11;;;;;;;10.40;9.40;;;;;;;29.89;56.05;99479.88;1791163;78;21164;-72
2021/07/17 01:05:37;;;;;;;10.98;9.98;;;;;;;29.89;56.06;99473.04;1789530;78;21089;-72
2021/07/17 01:08:06;;;;;;;10.80;9.65;;;;;;;29.89;56.11;99475.77;1807328;78;21038;-72
2021/07/17 01:10:32;;;;;;;10.50;9.53;;;;;;;29.90;56.10;99475.21;1785171;79;21064;-72
2021/07/17 01:13:00;;;;;;;10.50;9.50;;;;;;;29.89;55.99;99477.71;1798889;79;21021;-72
2021/07/17 01:15:27;;;;;;;10.38;9.35;;;;;;;29.88;56.05;99476.91;1789240;79;21083;-74
2021/07/17 01:17:53;;;;;;;10.80;9.78;;;;;;;29.89;56.06;99474.97;1778893;78;21077;-74
2021/07/17 01:20:21;;;;;;;9.45;8.55;;;;;;;29.89;56.10;99483.98;1760369;79;21028;-74
2021/07/17 01:22:48;;;;;;;9.80;8.80;;;;;;;29.89;56.11;99474.97;1772781;79;21057;-74
2021/07/17 01:25:24;;;;;;;10.60;9.60;;;;;;;29.89;56.16;99477.71;1771720;79;21017;-73
2021/07/17 01:27:57;;;;;;;9.93;8.60;;;;;;;29.88;56.16;99475.54;1776961;79;21607;-73
2021/07/17 01:30:27;;;;;;;9.43;8.55;;;;;;;29.88;56.16;99472.80;1781406;79;21072;-73
2021/07/17 01:32:54;;;;;;;9.93;9.13;;;;;;;29.88;56.18;99468.69;1793739;79;20983;-73
2021/07/17 01:35:21;;;;;;;9.93;8.65;;;;;;;29.86;56.15;99470.89;1784430;79;21077;-74
2021/07/17 01:37:47;;;;;;;10.38;9.38;;;;;;;29.87;56.15;99472.53;1765254;79;21473;-71
2021/07/17 01:40:19;;;;;;;9.65;8.75;;;;;;;29.87;56.15;99475.83;1774410;79;21931;-71
2021/07/17 01:42:50;;;;;;;10.50;9.50;;;;;;;29.88;56.12;99476.07;1770428;79;21014;-71
2021/07/17 01:45:28;;;;;;;9.85;8.95;;;;;;;29.88;56.10;99476.91;1782192;79;21096;-70
2021/07/17 01:47:55;;;;;;;9.33;8.43;;;;;;;29.87;56.15;99473.91;1772033;79;21019;-70
2021/07/17 01:50:25;;;;;;;10.15;8.93;;;;;;;29.86;56.18;99473.63;1781508;79;21038;-69
2021/07/17 01:52:52;;;;;;;10.20;9.30;;;;;;;29.86;56.17;99477.73;1792944;78;21511;-70
2021/07/17 01:55:19;;;;;;;9.75;8.90;;;;;;;29.86;56.23;99483.78;1786223;79;21454;-73
2021/07/17 01:57:46;;;;;;;9.88;8.88;;;;;;;29.87;56.20;99479.94;1787820;79;21070;-73
2021/07/17 02:00:14;;;;;;;10.25;9.23;;;;;;;29.86;56.15;99483.22;1777806;79;21018;-73
2021/07/17 02:02:42;;;;;;;9.70;8.28;;;;;;;29.85;56.10;99478.87;1792906;79;21061;-73
2021/07/17 02:05:11;;;;;;;9.73;8.80;;;;;;;29.86;56.14;99476.94;1797026;79;21086;-73
2021/07/17 02:07:38;;;;;;;9.38;8.48;;;;;;;29.85;56.16;99477.50;1793868;79;21028;-72
2021/07/17 02:10:08;;;;;;;9.88;8.98;;;;;;;29.86;56.11;99479.11;1806899;79;21292;-71
2021/07/17 02:12:34;;;;;;;9.70;8.80;;;;;;;29.86;56.14;99481.84;1799665;79;21520;-71
2021/07/17 02:15:01;;;;;;;10.35;9.43;;;;;;;29.86;56.10;99474.20;1804854;79;21513;-71
2021/07/17 02:17:28;;;;;;;9.73;8.93;;;;;;;29.86;56.12;99472.26;1783144;78;21934;-71
2021/07/17 02:19:54;;;;;;;9.70;8.70;;;;;;;29.86;56.12;99472.83;1752976;80;21029;-72
2021/07/17 02:22:22;;;;;;;10.65;9.63;;;;;;;29.86;56.18;99476.94;1782822;80;21078;-71
2021/07/17 02:24:48;;;;;;;10.18;9.13;;;;;;;29.86;56.18;99483.22;1794711;79;21114;-71
2021/07/17 02:27:15;;;;;;;10.15;9.25;;;;;;;29.87;56.20;99481.31;1797197;79;21073;-71
2021/07/17 02:29:41;;;;;;;10.28;9.28;;;;;;;29.86;56.14;99483.22;1797208;79;21130;-71
2021/07/17 02:32:08;;;;;;;10.40;9.50;;;;;;;29.86;56.14;99480.48;1789726;79;21070;-72
2021/07/17 02:34:34;;;;;;;10.05;9.15;;;;;;;29.86;56.20;99480.48;1791139;79;21062;-71
2021/07/17 02:37:01;;;;;;;10.82;9.85;;;;;;;29.86;56.19;99476.37;1793456;79;21022;-72
2021/07/17 02:39:27;;;;;;;10.75;9.75;;;;;;;29.85;56.16;99477.50;1786400;79;21081;-72
2021/07/17 02:41:53;;;;;;;9.95;8.95;;;;;;;29.86;56.14;99477.73;1787250;79;21772;-72
2021/07/17 02:44:20;;;;;;;10.08;9.20;;;;;;;29.86;56.14;99473.63;1783090;79;21505;-72
2021/07/17 02:46:46;;;;;;;10.88;9.98;;;;;;;29.86;56.13;99476.94;1794564;79;21043;-71
2021/07/17 02:49:15;;;;;;;10.35;9.35;;;;;;;29.85;56.14;99474.77;1796070;79;21097;-72
2021/07/17 02:51:42;;;;;;;11.08;10.08;;;;;;;29.85;56.09;99477.50;1789857;79;22124;-71
2021/07/17 02:54:10;;;;;;;10.32;9.43;;;;;;;29.86;56.12;99478.30;1791117;79;21141;-71
2021/07/17 02:56:37;;;;;;;10.70;9.78;;;;;;;29.86;56.09;99481.84;1791612;79;21035;-72
2021/07/17 02:59:03;;;;;;;11.48;9.98;;;;;;;29.86;56.13;99480.48;1793485;79;21031;-73
2021/07/17 03:01:31;;;;;;;10.32;9.38;;;;;;;29.85;56.15;99482.98;1788411;79;21053;-72
2021/07/17 03:03:57;;;;;;;11.22;9.63;;;;;;;29.86;56.14;99474.20;1772874;79;21045;-72
2021/07/17 03:06:24;;;;;;;10.78;9.90;;;;;;;29.85;56.20;99477.50;1781532;79;21774;-72
2021/07/17 03:08:50;;;;;;;9.58;8.78;;;;;;;29.86;56.19;99476.94;1782241;79;21576;-72
2021/07/17 03:11:17;;;;;;;9.68;8.78;;;;;;;29.85;56.10;99474.77;1779874;79;21710;-72
2021/07/17 03:13:43;;;;;;;10.35;9.35;;;;;;;29.86;56.18;99481.84;1782282;79;22181;-72
2021/07/17 03:16:10;;;;;;;9.35;8.48;;;;;;;29.86;56.18;99470.09;1792564;79;21069;-72
2021/07/17 03:18:36;;;;;;;9.03;8.33;;;;;;;29.87;56.15;99475.83;1770009;79;21789;-72
2021/07/17 03:21:02;;;;;;;9.38;8.48;;;;;;;29.86;56.21;99475.00;1777162;79;21007;-71
2021/07/17 03:23:29;;;;;;;10.13;9.23;;;;;;;29.87;56.20;99468.42;1765252;79;21017;-72
2021/07/17 03:25:55;;;;;;;9.40;8.60;;;;;;;29.87;56.21;99468.98;1766464;79;21061;-71
2021/07/17 03:28:22;;;;;;;9.80;8.95;;;;;;;29.87;56.25;99471.73;1779328;79;21588;-72
2021/07/17 03:30:48;;;;;;;9.78;8.53;;;;;;;29.88;56.29;99473.33;1771311;79;21083;-71
2021/07/17 03:33:14;;;;;;;9.43;8.48;;;;;;;29.88;56.36;99466.48;1773702;79;21017;-72
2021/07/17 03:35:41;;;;;;;9.90;8.98;;;;;;;29.88;56.30;99467.32;1785580;79;21081;-72
2021/07/17 03:38:07;;;;;;;9.08;8.28;;;;;;;29.89;56.33;99469.49;1794591;79;21041;-72
2021/07/17 03:40:34;;;;;;;9.50;8.60;;;;;;;29.88;56.34;99464.58;1766039;79;21022;-72
2021/07/17 03:43:00;;;;;;;8.68;7.97;;;;;;;29.89;56.35;99467.56;1778275;79;21960;-72
2021/07/17 03:45:27;;;;;;;9.55;8.65;;;;;;;29.89;56.37;99466.19;1791495;79;21018;-73
2021/07/17 03:47:54;;;;;;;8.53;7.72;;;;;;;29.90;56.39;99463.72;1788905;79;21073;-73
2021/07/17 03:50:20;;;;;;;9.40;8.60;;;;;;;29.88;56.37;99463.22;1783280;79;21552;-73
2021/07/17 03:52:46;;;;;;;9.13;8.38;;;;;;;29.90;56.41;99457.41;1791108;79;21501;-72
2021/07/17 03:55:13;;;;;;;8.80;8.10;;;;;;;29.90;56.50;99462.36;1792322;79;21143;-72
2021/07/17 03:57:40;;;;;;;8.05;7.25;;;;;;;29.91;56.47;99470.00;1776429;79;21030;-72
2021/07/17 04:00:07;;;;;;;8.93;8.18;;;;;;;29.91;56.49;99469.44;1776252;79;21038;-73
2021/07/17 04:02:41;;;;;;;8.75;8.05;;;;;;;29.92;56.51;99469.70;1783142;79;21030;-71
2021/07/17 04:05:11;;;;;;;9.00;8.10;;;;;;;29.92;56.51;99468.88;1793476;79;21017;-72
2021/07/17 04:07:38;;;;;;;9.30;8.35;;;;;;;29.93;56.51;99477.35;1785271;79;22029;-72
2021/07/17 04:10:06;;;;;;;8.40;7.70;;;;;;;29.93;56.55;99478.16;1776158;79;21052;-71
2021/07/17 04:12:32;;;;;;;8.25;7.55;;;;;;;29.94;56.39;99483.06;1796170;79;21528;-71
2021/07/17 04:14:59;;;;;;;9.25;8.45;;;;;;;29.95;56.44;99488.25;1796118;79;20998;-72
2021/07/17 04:17:26;;;;;;;9.08;8.28;;;;;;;29.96;56.52;99485.78;1775282;78;21036;-71
2021/07/17 04:19:53;;;;;;;9.53;8.73;;;;;;;29.97;56.59;99484.64;1788503;79;21128;-71
2021/07/17 04:22:19;;;;;;;8.53;7.72;;;;;;;29.98;56.55;99482.17;1779931;79;21018;-71
2021/07/17 04:24:46;;;;;;;8.55;7.85;;;;;;;30.02;56.56;99487.03;1779864;78;21553;-72
2021/07/17 04:27:13;;;;;;;8.38;7.55;;;;;;;30.03;56.66;99483.99;1782235;79;21029;-72
2021/07/17 04:29:39;;;;;;;9.03;8.23;;;;;;;30.05;56.85;99485.06;1786295;79;21056;-71
2021/07/17 04:32:06;;;;;;;8.28;7.47;;;;;;;30.06;56.92;99492.98;1777333;79;21134;-71
2021/07/17 04:34:33;;;;;;;8.25;7.55;;;;;;;30.07;56.94;99490.48;1803766;79;21006;-71
2021/07/17 04:37:01;;;;;;;7.83;7.17;;;;;;;30.09;56.96;99492.92;1798382;79;21517;-71
2021/07/17 04:39:27;;;;;;;8.48;7.60;;;;;;;30.09;57.06;99485.51;1764451;79;21029;-71
2021/07/17 04:41:54;;;;;;;8.58;7.78;;;;;;;30.11;57.08;99482.47;1786041;79;21084;-72
2021/07/17 04:44:21;;;;;;;8.88;8.08;;;;;;;30.11;57.13;99480.53;1795961;79;21135;-71
2021/07/17 04:46:47;;;;;;;8.45;7.65;;;;;;;30.12;57.08;99480.80;1782919;79;21038;-72
2021/07/17 04:49:14;;;;;;;9.03;8.13;;;;;;;30.14;57.15;99485.42;1796105;79;21028;-70
2021/07/17 04:51:41;;;;;;;9.33;8.20;;;;;;;30.16;57.23;99483.19;1773997;79;21512;-71
2021/07/17 04:54:08;;;;;;;8.88;8.08;;;;;;;30.18;57.07;99488.36;1764500;79;21088;-71
2021/07/17 04:56:36;;;;;;;8.95;8.08;;;;;;;30.19;57.14;99486.70;1786847;79;20997;-72
2021/07/17 04:59:02;;;;;;;8.40;7.60;;;;;;;30.21;57.27;99489.14;1799911;79;21013;-71
2021/07/17 05:01:29;;;;;;;9.55;8.35;;;;;;;30.22;57.35;99488.00;1785962;79;21013;-71
2021/07/17 05:03:56;;;;;;;8.75;7.72;;;;;;;30.24;57.38;99491.81;1784333;80;21116;-71
2021/07/17 05:06:22;;;;;;;9.45;8.05;;;;;;;30.24;57.30;99484.97;1784258;79;21038;-70
2021/07/17 05:08:49;;;;;;;11.48;7.62;;;;;;;30.25;57.29;99492.89;1777689;80;21323;-68
2021/07/17 05:11:16;;;;;;;9.43;7.50;;;;;;;30.26;57.39;99497.80;1774941;80;21034;-71
2021/07/17 05:13:43;;;;;;;9.15;7.42;;;;;;;30.25;57.31;99497.53;1773955;80;21100;-72
2021/07/17 05:18:05;;;;;;;9.20;8.30;;;;;;;30.23;53.95;99495.12;1855212;76;22435;-74
2021/07/17 05:20:32;;;;;;;8.50;7.65;;;;;;;30.06;52.49;99503.13;1821096;78;21015;-73
2021/07/17 05:23:00;;;;;;;8.85;7.95;;;;;;;29.94;51.22;99502.23;1815594;77;21112;-72
2021/07/17 05:25:27;;;;;;;8.58;7.40;;;;;;;29.83;50.20;99510.41;1820992;77;21520;-72
2021/07/17 05:27:53;;;;;;;8.88;7.67;;;;;;;29.71;49.40;99504.00;1815394;78;21517;-72
2021/07/17 05:30:20;;;;;;;8.75;7.83;;;;;;;29.59;48.73;99511.32;1828515;77;21032;-72
2021/07/17 05:32:46;;;;;;;8.90;7.87;;;;;;;29.47;48.11;99511.80;1792575;78;20946;-72
2021/07/17 05:35:13;;;;;;;9.05;8.15;;;;;;;29.35;47.59;99509.53;1820197;77;21070;-71
2021/07/17 05:37:39;;;;;;;9.23;8.28;;;;;;;29.26;47.17;99509.14;1811455;77;20958;-73
2021/07/17 05:40:08;;;;;;;9.05;8.25;;;;;;;29.15;46.72;99506.58;1805611;77;20967;-71
2021/07/17 05:42:34;;;;;;;8.98;8.15;;;;;;;29.07;46.54;99508.59;1820581;77;21035;-70
2021/07/17 05:45:01;;;;;;;9.38;8.38;;;;;;;29.00;47.39;99508.15;1814841;77;21053;-72
2021/07/17 05:47:29;;;;;;;9.30;8.20;;;;;;;29.00;48.18;99514.42;1829300;77;21110;-72
2021/07/17 05:49:55;;;;;;;8.83;7.92;;;;;;;29.05;49.04;99514.08;1816275;77;21084;-72
2021/07/17 05:52:22;;;;;;;9.58;8.58;;;;;;;29.10;49.66;99513.45;1752634;80;21049;-72
2021/07/17 05:54:50;;;;;;;8.80;7.95;;;;;;;29.15;50.13;99514.78;1763412;80;21490;-72
2021/07/17 05:57:16;;;;;;;8.25;7.45;;;;;;;29.20;50.51;99513.31;1761033;80;21369;-72
2021/07/17 05:59:43;;;;;;;8.83;8.03;;;;;;;29.26;50.80;99520.09;1767016;79;21086;-69
2021/07/17 06:02:10;;;;;;;10.82;8.60;;;;;;;29.30;50.79;99519.74;1763356;80;21054;-72
2021/07/17 06:04:36;;;;;;;8.85;7.95;;;;;;;29.33;50.99;99522.70;1765754;79;21062;-70
2021/07/17 06:07:03;;;;;;;9.70;8.08;;;;;;;29.39;51.23;99517.96;1768688;80;21053;-70
2021/07/17 06:09:29;;;;;;;8.95;8.15;;;;;;;29.42;51.48;99520.11;1765981;79;21100;-69
2021/07/17 06:11:56;;;;;;;8.53;7.72;;;;;;;29.47;51.76;99521.37;1765447;79;21117;-72
2021/07/17 06:14:23;;;;;;;9.33;8.43;;;;;;;29.49;51.98;99524.62;1766604;80;21050;-72
2021/07/17 06:16:49;;;;;;;9.53;8.53;;;;;;;29.53;52.25;99523.47;1765574;79;21524;-71
2021/07/17 06:19:16;;;;;;;8.50;7.80;;;;;;;29.55;52.34;99517.98;1781750;78;21485;-70
2021/07/17 06:21:42;;;;;;;9.20;8.30;;;;;;;29.57;52.53;99521.22;1761084;81;21068;-70
2021/07/17 06:24:09;;;;;;;10.53;8.40;;;;;;;29.61;52.68;99520.05;1761050;79;21086;-68
2021/07/17 06:26:35;;;;;;;9.58;8.55;;;;;;;29.64;52.75;99521.39;1757213;79;21009;-71
2021/07/17 06:29:01;;;;;;;10.00;8.05;;;;;;;29.66;52.88;99520.53;1747420;80;21571;-66
2021/07/17 06:31:28;;;;;;;9.78;8.88;;;;;;;29.68;53.04;99521.04;1764171;80;21547;-70
2021/07/17 06:33:54;;;;;;;9.55;8.75;;;;;;;29.71;53.30;99517.69;1770664;78;21077;-69
2021/07/17 06:36:22;;;;;;;9.83;8.83;;;;;;;29.73;53.36;99519.63;1767001;78;21506;-69
2021/07/17 06:38:50;;;;;;;9.18;8.28;;;;;;;29.73;53.50;99514.95;1767482;78;21051;-71
2021/07/17 06:41:16;;;;;;;9.03;8.13;;;;;;;29.76;53.70;99514.89;1766422;78;21501;-70
2021/07/17 06:43:44;;;;;;;11.55;9.35;;;;;;;29.78;53.72;99512.66;1765595;78;21540;-70
2021/07/17 06:46:10;;;;;;;9.70;8.70;;;;;;;29.79;53.90;99514.30;1768797;79;21403;-71
2021/07/17 06:48:37;;;;;;;10.58;9.33;;;;;;;29.81;53.97;99512.08;1772846;78;21150;-68
2021/07/17 06:51:03;;;;;;;11.22;8.60;;;;;;;29.83;54.01;99506.30;1767439;80;21073;-71
2021/07/17 06:53:30;;;;;;;9.78;8.98;;;;;;;29.83;54.06;99508.48;1766098;78;21031;-74
2021/07/17 06:55:57;;;;;;;10.43;8.33;;;;;;;29.84;53.29;99505.98;1769112;79;21084;-74
2021/07/17 06:58:24;;;;;;;9.45;8.60;;;;;;;29.83;51.98;99504.94;1768742;78;22310;-73
2021/07/17 07:00:50;;;;;;;9.60;8.30;;;;;;;29.82;51.03;99498.63;1768720;78;21540;-69
2021/07/17 07:03:17;;;;;;;9.28;8.18;;;;;;;29.81;50.39;99501.12;1767716;79;21018;-72
2021/07/17 07:05:43;;;;;;;9.50;8.38;;;;;;;29.81;49.97;99505.23;1766994;79;21106;-75
2021/07/17 07:08:09;;;;;;;9.70;8.70;;;;;;;29.82;49.61;99504.66;1766586;78;21110;-72
2021/07/17 07:10:36;;;;;;;8.40;7.70;;;;;;;29.80;49.28;99502.22;1768732;78;21038;-72
2021/07/17 07:13:15;;;;;;;10.55;7.97;;;;;;;29.81;48.93;99500.32;1766915;78;21120;-71
2021/07/17 07:15:42;;;;;;;9.48;8.55;;;;;;;29.79;48.53;99493.20;1768078;79;21065;-73
2021/07/17 07:18:08;;;;;;;9.48;7.80;;;;;;;29.79;48.19;99491.03;1766442;78;21062;-71
2021/07/17 07:20:34;;;;;;;9.25;8.05;;;;;;;29.78;47.96;99494.88;1766798;78;21097;-71
2021/07/17 07:23:02;;;;;;;8.70;7.90;;;;;;;29.78;47.71;99503.09;1767472;78;21537;-71
2021/07/17 07:25:29;;;;;;;10.50;8.15;;;;;;;29.77;47.43;99505.02;1767349;78;21153;-70
2021/07/17 07:27:55;;;;;;;9.93;8.33;;;;;;;29.79;47.22;99504.72;1766352;78;21065;-71
2021/07/17 07:30:22;;;;;;;8.80;7.95;;;;;;;29.78;46.98;99503.09;1766158;78;21098;-72
2021/07/17 07:32:49;;;;;;;9.25;8.08;;;;;;;29.78;46.86;99503.89;1772431;79;20993;-71
2021/07/17 07:35:19;;;;;;;8.83;7.67;;;;;;;29.78;46.58;99501.72;1767590;78;21599;-70
2021/07/17 07:37:46;;;;;;;8.85;7.70;;;;;;;29.78;46.23;99503.89;1768815;80;21307;-70
2021/07/17 07:40:14;;;;;;;7.83;7.12;;;;;;;29.78;46.03;99503.89;1767538;78;21059;-66
2021/07/17 07:42:41;;;;;;;8.98;8.08;;;;;;;29.77;45.85;99498.73;1769801;78;21444;-64
2021/07/17 07:45:08;;;;;;;8.95;8.15;;;;;;;29.76;45.88;99500.64;1763413;78;21106;-66
2021/07/17 07:47:35;;;;;;;11.85;8.28;;;;;;;29.78;46.09;99500.34;1767823;80;21125;-65
2021/07/17 07:50:02;;;;;;;9.43;8.43;;;;;;;29.79;45.70;99507.46;1766867;78;21107;-66
2021/07/17 07:52:28;;;;;;;9.15;7.37;;;;;;;29.79;45.37;99495.95;1768462;78;22016;-66
2021/07/17 07:54:55;;;;;;;9.40;7.80;;;;;;;29.81;45.53;99490.17;1770881;78;21073;-66
2021/07/17 07:57:21;;;;;;;9.78;8.78;;;;;;;29.83;45.59;99488.51;1767236;78;21061;-65
2021/07/17 07:59:48;;;;;;;9.48;7.80;;;;;;;29.85;45.35;99494.49;1767260;79;21536;-75
2021/07/17 08:02:15;;;;;;;8.95;7.58;;;;;;;29.86;45.17;99494.73;1765491;78;21782;-70
2021/07/17 08:04:41;;;;;;;8.25;7.45;;;;;;;29.87;46.48;99495.00;1765568;78;21064;-66
2021/07/17 08:07:08;;;;;;;8.08;7.28;;;;;;;29.87;48.57;99497.73;1767392;79;21056;-68
2021/07/17 08:09:35;;;;;;;8.15;7.35;;;;;;;29.88;51.68;99500.72;1764254;78;21043;-66
2021/07/17 08:12:02;;;;;;;8.50;7.78;;;;;;;29.84;53.34;99497.77;1765093;79;21069;-69
2021/07/17 08:14:28;;;;;;;8.10;7.33;;;;;;;29.81;54.60;99492.91;1765126;78;22926;-67
2021/07/17 08:16:56;;;;;;;8.08;7.37;;;;;;;29.77;55.38;99500.91;1766223;79;21092;-70
2021/07/17 08:19:23;;;;;;;10.38;7.53;;;;;;;29.72;55.87;99496.05;1767191;78;21046;-69
2021/07/17 08:21:49;;;;;;;8.05;7.25;;;;;;;29.68;56.22;99498.58;1766675;79;21106;-67
2021/07/17 08:24:16;;;;;;;7.72;7.03;;;;;;;29.65;56.56;99497.83;1764049;79;21128;-76
2021/07/17 08:26:43;;;;;;;69.15;31.75;;;;;;;29.63;56.85;99495.11;1767499;79;21038;-64
2021/07/17 08:29:09;;;;;;;24.65;15.30;;;;;;;29.05;100.00;99486.17;1769351;79;21042;-67
2021/07/17 08:31:37;;;;;;;13.95;10.38;;;;;;;29.01;100.00;99494.72;1765566;78;21082;-68
2021/07/17 08:34:04;;;;;;;10.90;9.13;;;;;;;28.94;100.00;99480.07;1764531;79;21012;-68
2021/07/17 08:36:30;;;;;;;9.23;8.30;;;;;;;28.83;100.00;99488.96;1765906;78;21057;-72
2021/07/17 08:38:57;;;;;;;8.90;8.10;;;;;;;28.75;99.81;99488.27;1768765;79;21121;-72
2021/07/17 08:41:26;;;;;;;8.98;8.18;;;;;;;28.71;91.41;99493.27;1768879;78;21017;-72
2021/07/17 08:43:55;;;;;;;9.00;7.60;;;;;;;28.71;87.10;99491.33;1788029;78;21056;-71
2021/07/17 08:46:24;;;;;;;9.30;8.40;;;;;;;28.72;84.08;99481.20;1787231;78;21478;-71
2021/07/17 08:48:55;;;;;;;10.60;9.50;;;;;;;28.74;81.60;99485.82;1768729;80;20999;-71
2021/07/17 08:51:21;;;;;;;14.55;8.20;;;;;;;28.76;80.03;99483.08;1769021;80;21090;-72
2021/07/17 08:53:49;;;;;;;8.90;8.10;;;;;;;28.79;78.27;99477.56;1766973;78;21110;-72
2021/07/17 08:56:18;;;;;;;9.40;8.20;;;;;;;28.80;76.44;99471.80;1765662;80;21119;-73
2021/07/17 08:58:44;;;;;;;8.13;7.30;;;;;;;28.78;74.25;99469.09;1764557;78;21096;-72
2021/07/17 09:01:15;;;;;;;9.10;8.20;;;;;;;28.85;72.63;99471.47;1771788;79;21116;-74
2021/07/17 09:03:41;;;;;;;12.28;7.90;;;;;;;28.86;70.95;99473.91;1762905;78;22134;-73
2021/07/17 09:06:08;;;;;;;10.43;7.80;;;;;;;28.87;68.92;99476.88;1767085;78;21013;-73
2021/07/17 09:08:35;;;;;;;8.65;7.85;;;;;;;28.90;67.73;99476.30;1767221;78;21104;-73
2021/07/17 09:11:01;;;;;;;9.50;8.60;;;;;;;28.92;65.80;99479.55;1766447;78;21574;-73
2021/07/17 09:13:31;;;;;;;9.08;8.05;;;;;;;28.96;65.42;99478.41;1765404;78;21137;-75
2021/07/17 09:16:10;;;;;;;8.23;7.53;;;;;;;29.00;67.78;99477.51;1765556;78;21542;-76
2021/07/17 09:18:50;;;;;;;9.30;8.38;;;;;;;29.04;69.12;99477.73;1766828;79;21045;-75
2021/07/17 09:21:29;;;;;;;8.13;7.33;;;;;;;29.05;69.86;99468.97;1762204;80;21061;-77
2021/07/17 09:24:01;;;;;;;8.13;7.42;;;;;;;29.05;70.56;99473.87;1765947;80;22200;-76
2021/07/17 09:26:33;;;;;;;9.00;8.05;;;;;;;29.05;70.84;99473.06;1766333;80;20994;-75
2021/07/17 09:29:03;;;;;;;8.90;7.53;;;;;;;29.05;71.12;99469.77;1766439;80;21084;-75
2021/07/17 09:31:32;;;;;;;8.28;7.47;;;;;;;29.05;71.53;99467.59;1762509;79;21061;-74
2021/07/17 09:34:07;;;;;;;9.35;8.43;;;;;;;29.06;71.45;99467.87;1762316;80;22073;-74
2021/07/17 09:36:37;;;;;;;11.10;8.53;;;;;;;29.07;71.73;99462.11;1763782;80;21065;-74
2021/07/17 09:39:05;;;;;;;10.60;8.10;;;;;;;29.09;72.20;99461.78;1762574;80;21034;-73
2021/07/17 09:41:31;;;;;;;9.70;8.30;;;;;;;29.14;72.97;99462.55;1767931;80;21796;-73
2021/07/17 09:44:03;;;;;;;10.00;8.40;;;;;;;29.23;72.84;99464.06;1765876;80;21031;-73
2021/07/17 09:46:31;;;;;;;16.87;9.08;;;;;;;29.24;73.36;99461.56;1767525;80;21050;-73
2021/07/17 09:49:00;;;;;;;12.28;9.80;;;;;;;29.25;73.71;99461.03;1765910;80;21568;-74
2021/07/17 09:51:32;;;;;;;11.48;8.90;;;;;;;29.26;73.73;99459.34;1764572;80;21053;-73
2021/07/17 09:54:02;;;;;;;10.75;8.80;;;;;;;29.28;73.74;99450.28;1766435;80;22158;-73
2021/07/17 09:56:35;;;;;;;11.68;9.25;;;;;;;29.30;73.91;99452.72;1764392;80;21510;-73
2021/07/17 09:59:05;;;;;;;12.30;9.28;;;;;;;29.32;74.09;99440.92;1732148;81;21071;-74
2021/07/17 10:01:37;;;;;;;12.30;8.73;;;;;;;29.32;74.21;99450.50;1733749;81;21159;-73
2021/07/17 10:04:10;;;;;;;10.03;8.63;;;;;;;29.33;74.05;99442.56;1726492;81;21574;-74
2021/07/17 10:06:45;;;;;;;10.45;8.45;;;;;;;29.35;74.17;99449.91;1733680;81;21626;-73
2021/07/17 10:09:17;;;;;;;10.35;8.58;;;;;;;29.41;74.18;99441.30;1736294;81;21177;-73
2021/07/17 10:12:03;;;;;;;13.32;8.75;;;;;;;29.50;73.86;99441.44;1736196;81;21093;-72
2021/07/17 10:14:34;;;;;;;12.37;9.05;;;;;;;29.51;73.99;99438.13;1736662;81;21138;-73
2021/07/17 10:17:11;;;;;;;11.48;8.78;;;;;;;29.53;74.07;99442.18;1735225;82;21189;-73
2021/07/17 10:19:40;;;;;;;10.60;8.83;;;;;;;29.53;74.02;99431.23;1764750;79;21014;-73
2021/07/17 10:22:08;;;;;;;12.68;8.30;;;;;;;29.55;73.94;99439.15;1763492;79;21220;-73
2021/07/17 10:24:35;;;;;;;8.95;8.05;;;;;;;29.56;73.87;99429.84;1767472;79;21089;-73
2021/07/17 10:38:06;;;;;;;9.73;8.08;;;;;;;31.12;67.93;99407.34;1774406;77;22085;-73
2021/07/17 10:40:33;;;;;;;10.98;8.68;;;;;;;31.25;66.81;99406.20;1778985;78;21080;-73
2021/07/17 10:42:59;;;;;;;12.00;8.48;;;;;;;31.19;66.41;99410.20;1786778;78;21156;-73
2021/07/17 10:45:43;;;;;;;10.45;8.38;;;;;;;31.10;66.27;99405.48;1783417;78;21045;-73
2021/07/17 10:48:31;;;;;;;10.08;8.40;;;;;;;31.04;66.26;99399.87;1782859;79;21044;-72
2021/07/17 10:51:05;;;;;;;11.08;8.95;;;;;;;30.96;66.17;99391.84;1764511;79;21061;-73
2021/07/17 10:53:46;;;;;;;8.75;7.85;;;;;;;30.89;66.31;99389.26;1788181;79;21618;-73
2021/07/17 10:56:35;;;;;;;10.82;8.58;;;;;;;30.83;66.27;99382.25;1789510;78;21867;-72
2021/07/17 10:59:15;;;;;;;9.35;8.45;;;;;;;30.75;66.30;99384.64;1790146;78;21499;-72
2021/07/17 11:02:04;;;;;;;9.55;7.72;;;;;;;30.68;66.40;99391.11;1766891;79;21034;-72
2021/07/17 11:04:44;;;;;;;9.40;8.40;;;;;;;30.62;66.57;99388.78;1764512;79;21063;-72
2021/07/17 11:07:26;;;;;;;8.55;7.45;;;;;;;30.56;66.59;99390.30;1766224;79;21579;-72
2021/07/17 11:10:01;;;;;;;9.25;7.97;;;;;;;30.51;66.75;99378.63;1768737;79;21151;-72
2021/07/17 11:12:46;;;;;;;9.08;8.15;;;;;;;30.48;66.78;99373.22;1768303;79;21127;-72
2021/07/17 11:15:19;;;;;;;9.43;7.90;;;;;;;30.45;66.81;99362.87;1769952;79;21520;-71
2021/07/17 11:17:53;;;;;;;9.05;7.95;;;;;;;30.43;66.74;99350.04;1766299;79;21080;-71
2021/07/17 11:20:35;;;;;;;8.48;7.60;;;;;;;30.42;66.68;99347.03;1768211;79;21647;-71
2021/07/17 11:23:17;;;;;;;8.68;7.80;;;;;;;30.42;66.60;99344.30;1767483;79;21730;-71
2021/07/17 11:25:56;;;;;;;8.33;7.50;;;;;;;30.42;66.52;99346.23;1776793;78;21068;-71
2021/07/17 11:28:51;;;;;;;8.15;7.35;;;;;;;30.42;66.48;99343.49;1753670;80;21100;-72
2021/07/17 11:31:40;;;;;;;9.23;7.92;;;;;;;30.41;66.45;99341.89;1753761;79;21083;-73
2021/07/17 11:34:21;;;;;;;8.25;7.30;;;;;;;30.38;66.68;99340.02;1740054;81;21140;-71
2021/07/17 11:36:54;;;;;;;10.63;7.80;;;;;;;30.35;67.11;99336.52;1755755;79;21516;-71
2021/07/17 11:39:25;;;;;;;9.23;8.28;;;;;;;30.33;67.16;99344.23;1752781;79;21591;-70
2021/07/17 11:41:53;;;;;;;9.63;8.38;;;;;;;30.33;66.93;99344.80;1752713;79;21115;-71
2021/07/17 11:44:20;;;;;;;8.90;7.65;;;;;;;30.33;66.89;99344.23;1752886;79;21095;-71
2021/07/17 11:47:09;;;;;;;9.48;7.92;;;;;;;30.36;66.84;99333.20;1752613;79;21351;-71
2021/07/17 11:49:39;;;;;;;8.40;7.60;;;;;;;30.39;66.81;99323.02;1722726;81;21143;-71